sensor_id;sensor_type;location;lat;lon;timestamp;noise_LAeq;noise_LA_min;noise_LA_max;noise_LA01;noise_LA95
72160;Laerm;60045;51.792;10.938;2023-08-08T00:00:35;32.10;29.30;41.21;;
72160;Laerm;60045;51.792;10.938;2023-08-08T00:03:01;33.50;29.76;36.91;;
72160;Laerm;60045;51.792;10.938;2023-08-08T00:05:27;35.26;29.71;43.21;;
72160;Laerm;60045;51.792;10.938;2023-08-08T00:07:55;35.73;31.47;39.17;;
72160;Laerm;60045;51.792;10.938;2023-08-08T00:10:21;36.96;31.75;40.49;;
72160;Laerm;60045;51.792;10.938;2023-08-08T00:12:47;36.45;32.76;40.97;;
72160;Laerm;60045;51.792;10.938;2023-08-08T00:15:12;52.27;33.72;69.81;;
72160;Laerm;60045;51.792;10.938;2023-08-08T00:17:38;50.99;33.20;67.65;;
72160;Laerm;60045;51.792;10.938;2023-08-08T00:20:05;34.91;32.05;38.86;;
72160;Laerm;60045;51.792;10.938;2023-08-08T00:22:32;34.90;32.44;39.04;;
72160;Laerm;60045;51.792;10.938;2023-08-08T00:24:58;34.31;32.19;43.28;;
72160;Laerm;60045;51.792;10.938;2023-08-08T00:27:24;35.27;32.26;41.27;;
72160;Laerm;60045;51.792;10.938;2023-08-08T00:29:50;34.84;32.62;37.79;;
72160;Laerm;60045;51.792;10.938;2023-08-08T00:32:18;40.71;34.44;46.45;;
72160;Laerm;60045;51.792;10.938;2023-08-08T00:34:43;36.53;32.87;42.11;;
72160;Laerm;60045;51.792;10.938;2023-08-08T00:37:09;40.98;35.34;45.74;;
72160;Laerm;60045;51.792;10.938;2023-08-08T00:39:35;39.06;34.36;44.95;;
72160;Laerm;60045;51.792;10.938;2023-08-08T00:42:01;41.12;36.09;44.41;;
72160;Laerm;60045;51.792;10.938;2023-08-08T00:44:27;39.30;34.47;44.93;;
72160;Laerm;60045;51.792;10.938;2023-08-08T00:46:52;38.38;33.85;43.80;;
72160;Laerm;60045;51.792;10.938;2023-08-08T00:49:18;38.53;34.54;44.65;;
72160;Laerm;60045;51.792;10.938;2023-08-08T00:51:44;60.35;35.74;77.60;;
72160;Laerm;60045;51.792;10.938;2023-08-08T00:54:10;55.42;34.57;72.72;;
72160;Laerm;60045;51.792;10.938;2023-08-08T00:56:39;38.82;35.11;47.58;;
72160;Laerm;60045;51.792;10.938;2023-08-08T00:59:05;51.64;32.23;69.12;;
72160;Laerm;60045;51.792;10.938;2023-08-08T01:01:33;35.52;31.43;39.29;;
72160;Laerm;60045;51.792;10.938;2023-08-08T01:03:58;35.93;32.06;38.59;;
72160;Laerm;60045;51.792;10.938;2023-08-08T01:06:37;35.25;33.20;40.64;;
72160;Laerm;60045;51.792;10.938;2023-08-08T01:09:05;36.90;31.66;44.58;;
72160;Laerm;60045;51.792;10.938;2023-08-08T01:11:34;36.30;33.20;39.40;;
72160;Laerm;60045;51.792;10.938;2023-08-08T01:14:02;57.72;32.44;75.46;;
72160;Laerm;60045;51.792;10.938;2023-08-08T01:16:28;35.66;32.02;41.80;;
72160;Laerm;60045;51.792;10.938;2023-08-08T01:18:55;38.18;33.67;43.62;;
72160;Laerm;60045;51.792;10.938;2023-08-08T01:21:22;36.09;32.70;43.17;;
72160;Laerm;60045;51.792;10.938;2023-08-08T01:24:00;37.21;32.94;42.90;;
72160;Laerm;60045;51.792;10.938;2023-08-08T01:26:30;37.21;33.45;40.97;;
72160;Laerm;60045;51.792;10.938;2023-08-08T01:28:56;36.87;34.62;39.95;;
72160;Laerm;60045;51.792;10.938;2023-08-08T01:31:22;34.32;32.11;37.35;;
72160;Laerm;60045;51.792;10.938;2023-08-08T01:33:48;35.80;31.04;41.84;;
72160;Laerm;60045;51.792;10.938;2023-08-08T01:36:16;39.72;33.65;48.99;;
72160;Laerm;60045;51.792;10.938;2023-08-08T01:38:45;37.52;32.98;42.59;;
72160;Laerm;60045;51.792;10.938;2023-08-08T01:41:12;38.42;33.26;43.52;;
72160;Laerm;60045;51.792;10.938;2023-08-08T01:43:38;39.42;34.12;46.89;;
72160;Laerm;60045;51.792;10.938;2023-08-08T01:46:04;61.44;32.70;78.74;;
72160;Laerm;60045;51.792;10.938;2023-08-08T01:48:31;49.81;32.30;66.86;;
72160;Laerm;60045;51.792;10.938;2023-08-08T01:50:56;49.39;32.55;65.73;;
72160;Laerm;60045;51.792;10.938;2023-08-08T01:53:22;39.33;32.03;46.26;;
72160;Laerm;60045;51.792;10.938;2023-08-08T01:55:48;34.73;32.23;37.65;;
72160;Laerm;60045;51.792;10.938;2023-08-08T01:58:14;34.46;31.60;39.38;;
72160;Laerm;60045;51.792;10.938;2023-08-08T02:00:39;35.30;31.60;40.64;;
72160;Laerm;60045;51.792;10.938;2023-08-08T02:03:10;37.90;33.61;42.75;;
72160;Laerm;60045;51.792;10.938;2023-08-08T02:05:35;60.56;31.75;76.60;;
72160;Laerm;60045;51.792;10.938;2023-08-08T02:08:01;54.97;32.89;71.29;;
72160;Laerm;60045;51.792;10.938;2023-08-08T02:10:27;63.55;31.23;81.44;;
72160;Laerm;60045;51.792;10.938;2023-08-08T02:12:52;36.92;31.86;44.02;;
72160;Laerm;60045;51.792;10.938;2023-08-08T02:15:18;46.68;31.71;62.50;;
72160;Laerm;60045;51.792;10.938;2023-08-08T02:17:45;45.29;32.55;64.68;;
72160;Laerm;60045;51.792;10.938;2023-08-08T02:20:11;47.86;31.85;65.28;;
72160;Laerm;60045;51.792;10.938;2023-08-08T02:22:37;64.41;31.59;82.35;;
72160;Laerm;60045;51.792;10.938;2023-08-08T02:25:03;38.53;32.74;48.88;;
72160;Laerm;60045;51.792;10.938;2023-08-08T02:27:29;53.03;29.77;69.66;;
72160;Laerm;60045;51.792;10.938;2023-08-08T02:29:54;54.62;29.87;71.78;;
72160;Laerm;60045;51.792;10.938;2023-08-08T02:32:22;51.42;30.31;67.45;;
72160;Laerm;60045;51.792;10.938;2023-08-08T02:34:48;33.23;29.51;39.90;;
72160;Laerm;60045;51.792;10.938;2023-08-08T02:37:13;35.21;30.76;41.89;;
72160;Laerm;60045;51.792;10.938;2023-08-08T02:39:39;61.43;31.05;78.07;;
72160;Laerm;60045;51.792;10.938;2023-08-08T02:42:05;59.96;37.89;74.16;;
72160;Laerm;60045;51.792;10.938;2023-08-08T02:44:31;36.37;30.82;49.13;;
72160;Laerm;60045;51.792;10.938;2023-08-08T02:46:56;55.42;30.68;69.71;;
72160;Laerm;60045;51.792;10.938;2023-08-08T02:49:22;36.04;29.19;51.20;;
72160;Laerm;60045;51.792;10.938;2023-08-08T02:51:48;33.51;29.78;48.75;;
72160;Laerm;60045;51.792;10.938;2023-08-08T02:54:14;49.61;29.45;64.81;;
72160;Laerm;60045;51.792;10.938;2023-08-08T02:56:39;34.43;29.10;42.40;;
72160;Laerm;60045;51.792;10.938;2023-08-08T02:59:05;54.21;28.78;70.82;;
72160;Laerm;60045;51.792;10.938;2023-08-08T03:01:31;50.35;29.73;66.84;;
72160;Laerm;60045;51.792;10.938;2023-08-08T03:03:56;53.78;32.12;68.77;;
72160;Laerm;60045;51.792;10.938;2023-08-08T03:06:22;50.23;30.19;66.53;;
72160;Laerm;60045;51.792;10.938;2023-08-08T03:08:48;55.69;30.41;71.84;;
72160;Laerm;60045;51.792;10.938;2023-08-08T03:11:14;52.34;30.72;70.38;;
72160;Laerm;60045;51.792;10.938;2023-08-08T03:13:39;58.29;31.07;71.87;;
72160;Laerm;60045;51.792;10.938;2023-08-08T03:16:05;49.60;31.92;65.14;;
72160;Laerm;60045;51.792;10.938;2023-08-08T03:18:31;67.10;35.94;84.80;;
72160;Laerm;60045;51.792;10.938;2023-08-08T03:20:56;56.92;33.77;72.72;;
72160;Laerm;60045;51.792;10.938;2023-08-08T03:23:22;60.50;33.82;75.93;;
72160;Laerm;60045;51.792;10.938;2023-08-08T03:25:49;61.54;34.03;73.75;;
72160;Laerm;60045;51.792;10.938;2023-08-08T03:28:14;54.98;30.20;73.35;;
72160;Laerm;60045;51.792;10.938;2023-08-08T03:30:40;59.34;32.42;75.31;;
72160;Laerm;60045;51.792;10.938;2023-08-08T03:33:06;59.91;35.66;72.35;;
72160;Laerm;60045;51.792;10.938;2023-08-08T03:35:31;61.54;35.30;74.54;;
72160;Laerm;60045;51.792;10.938;2023-08-08T03:37:57;53.83;33.26;72.00;;
72160;Laerm;60045;51.792;10.938;2023-08-08T03:40:23;52.39;32.51;68.28;;
72160;Laerm;60045;51.792;10.938;2023-08-08T03:42:49;64.65;36.17;81.34;;
72160;Laerm;60045;51.792;10.938;2023-08-08T03:45:15;59.80;34.87;73.41;;
72160;Laerm;60045;51.792;10.938;2023-08-08T03:47:40;67.41;35.72;84.08;;
72160;Laerm;60045;51.792;10.938;2023-08-08T03:50:06;47.31;34.31;64.81;;
72160;Laerm;60045;51.792;10.938;2023-08-08T03:52:33;53.91;31.70;67.84;;
72160;Laerm;60045;51.792;10.938;2023-08-08T03:55:00;57.56;35.48;72.85;;
72160;Laerm;60045;51.792;10.938;2023-08-08T03:57:26;59.54;34.35;73.14;;
72160;Laerm;60045;51.792;10.938;2023-08-08T03:59:52;58.52;32.54;73.88;;
72160;Laerm;60045;51.792;10.938;2023-08-08T04:02:18;59.32;34.62;77.73;;
72160;Laerm;60045;51.792;10.938;2023-08-08T04:04:43;56.01;34.82;71.90;;
72160;Laerm;60045;51.792;10.938;2023-08-08T04:07:09;56.27;37.07;72.54;;
72160;Laerm;60045;51.792;10.938;2023-08-08T04:09:35;55.69;36.15;69.81;;
72160;Laerm;60045;51.792;10.938;2023-08-08T04:12:00;59.00;35.01;75.60;;
72160;Laerm;60045;51.792;10.938;2023-08-08T04:14:26;53.45;34.86;71.95;;
72160;Laerm;60045;51.792;10.938;2023-08-08T04:16:52;65.48;38.75;83.07;;
72160;Laerm;60045;51.792;10.938;2023-08-08T04:19:18;66.02;39.03;84.04;;
72160;Laerm;60045;51.792;10.938;2023-08-08T04:21:44;55.39;34.81;69.94;;
72160;Laerm;60045;51.792;10.938;2023-08-08T04:24:10;62.59;38.20;78.95;;
72160;Laerm;60045;51.792;10.938;2023-08-08T04:26:37;61.92;39.62;77.98;;
72160;Laerm;60045;51.792;10.938;2023-08-08T04:29:03;64.53;38.83;79.55;;
72160;Laerm;60045;51.792;10.938;2023-08-08T04:31:28;67.56;38.74;83.76;;
72160;Laerm;60045;51.792;10.938;2023-08-08T04:33:54;61.38;38.43;79.06;;
72160;Laerm;60045;51.792;10.938;2023-08-08T04:36:21;61.77;39.44;74.80;;
72160;Laerm;60045;51.792;10.938;2023-08-08T04:38:47;64.33;38.11;79.33;;
72160;Laerm;60045;51.792;10.938;2023-08-08T04:41:12;59.49;36.97;72.30;;
72160;Laerm;60045;51.792;10.938;2023-08-08T04:43:38;62.16;39.21;74.23;;
72160;Laerm;60045;51.792;10.938;2023-08-08T04:46:04;62.49;40.78;77.43;;
72160;Laerm;60045;51.792;10.938;2023-08-08T04:48:30;65.28;42.19;78.76;;
72160;Laerm;60045;51.792;10.938;2023-08-08T04:50:55;66.41;41.82;81.49;;
72160;Laerm;60045;51.792;10.938;2023-08-08T04:53:21;66.06;41.58;81.38;;
72160;Laerm;60045;51.792;10.938;2023-08-08T04:55:47;63.35;40.65;77.53;;
72160;Laerm;60045;51.792;10.938;2023-08-08T04:58:13;52.23;38.09;68.07;;
72160;Laerm;60045;51.792;10.938;2023-08-08T05:00:38;62.56;36.51;76.96;;
72160;Laerm;60045;51.792;10.938;2023-08-08T05:03:04;65.36;39.76;83.19;;
72160;Laerm;60045;51.792;10.938;2023-08-08T05:05:30;61.20;39.12;73.19;;
72160;Laerm;60045;51.792;10.938;2023-08-08T05:07:55;62.88;37.02;81.15;;
72160;Laerm;60045;51.792;10.938;2023-08-08T05:10:21;52.32;35.79;70.39;;
72160;Laerm;60045;51.792;10.938;2023-08-08T05:12:48;55.29;35.61;73.63;;
72160;Laerm;60045;51.792;10.938;2023-08-08T05:15:13;64.66;38.77;79.66;;
72160;Laerm;60045;51.792;10.938;2023-08-08T05:17:39;61.41;39.79;76.17;;
72160;Laerm;60045;51.792;10.938;2023-08-08T05:20:05;65.54;38.42;80.12;;
72160;Laerm;60045;51.792;10.938;2023-08-08T05:22:31;58.09;36.58;72.72;;
72160;Laerm;60045;51.792;10.938;2023-08-08T05:24:57;55.83;38.19;69.95;;
72160;Laerm;60045;51.792;10.938;2023-08-08T05:27:22;59.91;38.41;72.08;;
72160;Laerm;60045;51.792;10.938;2023-08-08T05:29:48;63.18;38.05;80.58;;
72160;Laerm;60045;51.792;10.938;2023-08-08T05:32:14;64.60;39.38;78.80;;
72160;Laerm;60045;51.792;10.938;2023-08-08T05:34:40;67.61;43.68;80.47;;
72160;Laerm;60045;51.792;10.938;2023-08-08T05:37:05;56.97;35.56;71.25;;
72160;Laerm;60045;51.792;10.938;2023-08-08T05:39:31;57.53;35.85;73.52;;
72160;Laerm;60045;51.792;10.938;2023-08-08T05:41:57;66.01;36.87;86.16;;
72160;Laerm;60045;51.792;10.938;2023-08-08T05:44:22;59.64;36.11;70.88;;
72160;Laerm;60045;51.792;10.938;2023-08-08T05:46:48;59.81;37.66;74.95;;
72160;Laerm;60045;51.792;10.938;2023-08-08T05:49:14;68.01;39.41;82.18;;
72160;Laerm;60045;51.792;10.938;2023-08-08T05:51:40;64.38;38.98;81.37;;
72160;Laerm;60045;51.792;10.938;2023-08-08T05:54:06;59.36;37.00;75.14;;
72160;Laerm;60045;51.792;10.938;2023-08-08T05:56:36;54.36;37.31;71.49;;
72160;Laerm;60045;51.792;10.938;2023-08-08T05:59:02;63.59;37.45;78.11;;
72160;Laerm;60045;51.792;10.938;2023-08-08T06:01:28;59.68;38.34;73.23;;
72160;Laerm;60045;51.792;10.938;2023-08-08T06:03:54;61.83;38.13;74.03;;
72160;Laerm;60045;51.792;10.938;2023-08-08T06:06:20;51.99;36.48;68.55;;
72160;Laerm;60045;51.792;10.938;2023-08-08T06:08:45;62.99;40.10;79.73;;
72160;Laerm;60045;51.792;10.938;2023-08-08T06:11:11;64.99;40.22;86.11;;
72160;Laerm;60045;51.792;10.938;2023-08-08T06:13:37;62.30;39.35;79.50;;
72160;Laerm;60045;51.792;10.938;2023-08-08T06:16:03;58.97;38.42;72.25;;
72160;Laerm;60045;51.792;10.938;2023-08-08T06:18:32;61.76;39.06;77.46;;
72160;Laerm;60045;51.792;10.938;2023-08-08T06:20:58;59.04;39.56;73.65;;
72160;Laerm;60045;51.792;10.938;2023-08-08T06:23:23;64.43;39.99;78.10;;
72160;Laerm;60045;51.792;10.938;2023-08-08T06:25:49;65.94;40.43;83.44;;
72160;Laerm;60045;51.792;10.938;2023-08-08T06:28:15;58.44;37.14;73.81;;
72160;Laerm;60045;51.792;10.938;2023-08-08T06:30:40;61.41;37.96;78.55;;
72160;Laerm;60045;51.792;10.938;2023-08-08T06:33:06;58.21;36.08;71.81;;
72160;Laerm;60045;51.792;10.938;2023-08-08T06:35:32;58.39;38.68;69.69;;
72160;Laerm;60045;51.792;10.938;2023-08-08T06:37:58;55.10;39.12;69.96;;
72160;Laerm;60045;51.792;10.938;2023-08-08T06:40:23;64.05;40.76;78.87;;
72160;Laerm;60045;51.792;10.938;2023-08-08T06:42:49;61.28;39.65;79.51;;
72160;Laerm;60045;51.792;10.938;2023-08-08T06:45:15;63.56;41.72;78.30;;
72160;Laerm;60045;51.792;10.938;2023-08-08T06:47:41;56.11;38.63;71.44;;
72160;Laerm;60045;51.792;10.938;2023-08-08T06:50:07;57.00;37.98;72.83;;
72160;Laerm;60045;51.792;10.938;2023-08-08T06:52:33;55.36;38.20;69.58;;
72160;Laerm;60045;51.792;10.938;2023-08-08T06:54:58;60.19;40.40;70.29;;
72160;Laerm;60045;51.792;10.938;2023-08-08T06:57:24;64.85;41.88;80.28;;
72160;Laerm;60045;51.792;10.938;2023-08-08T06:59:50;65.22;42.65;82.04;;
72160;Laerm;60045;51.792;10.938;2023-08-08T07:02:20;66.73;41.77;80.26;;
72160;Laerm;60045;51.792;10.938;2023-08-08T07:04:46;62.16;40.74;82.68;;
72160;Laerm;60045;51.792;10.938;2023-08-08T07:07:11;41.24;38.51;47.52;;
72160;Laerm;60045;51.792;10.938;2023-08-08T07:09:37;67.15;41.87;84.14;;
72160;Laerm;60045;51.792;10.938;2023-08-08T07:12:04;57.53;39.55;74.40;;
72160;Laerm;60045;51.792;10.938;2023-08-08T07:14:29;64.08;39.97;79.39;;
72160;Laerm;60045;51.792;10.938;2023-08-08T07:16:55;58.96;37.80;71.90;;
72160;Laerm;60045;51.792;10.938;2023-08-08T07:19:21;61.00;39.72;71.45;;
72160;Laerm;60045;51.792;10.938;2023-08-08T07:21:47;60.50;41.69;70.83;;
72160;Laerm;60045;51.792;10.938;2023-08-08T07:24:13;63.46;41.74;78.63;;
72160;Laerm;60045;51.792;10.938;2023-08-08T07:26:39;67.04;39.51;80.58;;
72160;Laerm;60045;51.792;10.938;2023-08-08T07:29:04;60.80;39.65;72.60;;
72160;Laerm;60045;51.792;10.938;2023-08-08T07:31:31;59.62;41.57;74.41;;
72160;Laerm;60045;51.792;10.938;2023-08-08T07:33:57;68.08;43.34;80.72;;
72160;Laerm;60045;51.792;10.938;2023-08-08T07:36:22;66.98;39.44;83.12;;
72160;Laerm;60045;51.792;10.938;2023-08-08T07:38:48;61.84;39.63;72.63;;
72160;Laerm;60045;51.792;10.938;2023-08-08T07:41:14;61.72;39.06;72.66;;
72160;Laerm;60045;51.792;10.938;2023-08-08T07:43:40;62.49;37.91;75.48;;
72160;Laerm;60045;51.792;10.938;2023-08-08T07:46:05;59.41;40.31;71.67;;
72160;Laerm;60045;51.792;10.938;2023-08-08T07:48:31;64.35;40.50;76.49;;
72160;Laerm;60045;51.792;10.938;2023-08-08T07:50:57;61.28;39.18;74.16;;
72160;Laerm;60045;51.792;10.938;2023-08-08T07:53:23;55.44;38.15;70.56;;
72160;Laerm;60045;51.792;10.938;2023-08-08T07:55:48;64.93;40.71;81.95;;
72160;Laerm;60045;51.792;10.938;2023-08-08T07:58:14;62.61;39.04;73.36;;
72160;Laerm;60045;51.792;10.938;2023-08-08T08:00:40;59.36;39.53;70.55;;
72160;Laerm;60045;51.792;10.938;2023-08-08T08:03:06;55.16;39.41;70.17;;
72160;Laerm;60045;51.792;10.938;2023-08-08T08:05:31;70.25;39.55;89.19;;
72160;Laerm;60045;51.792;10.938;2023-08-08T08:07:59;60.20;38.71;72.61;;
72160;Laerm;60045;51.792;10.938;2023-08-08T08:10:25;61.39;41.44;71.69;;
72160;Laerm;60045;51.792;10.938;2023-08-08T08:12:51;58.12;40.18;68.97;;
72160;Laerm;60045;51.792;10.938;2023-08-08T08:15:23;62.95;42.35;73.02;;
72160;Laerm;60045;51.792;10.938;2023-08-08T08:17:48;64.42;43.51;88.38;;
72160;Laerm;60045;51.792;10.938;2023-08-08T08:20:14;59.17;40.68;70.98;;
72160;Laerm;60045;51.792;10.938;2023-08-08T08:22:40;65.37;38.48;79.90;;
72160;Laerm;60045;51.792;10.938;2023-08-08T08:25:06;65.67;37.30;81.25;;
72160;Laerm;60045;51.792;10.938;2023-08-08T08:27:34;63.34;42.63;78.07;;
72160;Laerm;60045;51.792;10.938;2023-08-08T08:30:00;67.43;43.37;81.57;;
72160;Laerm;60045;51.792;10.938;2023-08-08T08:32:26;61.96;40.12;77.40;;
72160;Laerm;60045;51.792;10.938;2023-08-08T08:34:51;61.95;39.93;77.61;;
72160;Laerm;60045;51.792;10.938;2023-08-08T08:37:17;59.85;40.06;70.83;;
72160;Laerm;60045;51.792;10.938;2023-08-08T08:39:43;62.58;43.21;77.73;;
72160;Laerm;60045;51.792;10.938;2023-08-08T08:42:09;64.68;39.98;77.05;;
72160;Laerm;60045;51.792;10.938;2023-08-08T08:44:36;60.34;42.58;70.27;;
72160;Laerm;60045;51.792;10.938;2023-08-08T08:47:04;61.78;41.07;75.25;;
72160;Laerm;60045;51.792;10.938;2023-08-08T08:49:36;61.45;40.43;73.11;;
72160;Laerm;60045;51.792;10.938;2023-08-08T08:52:03;62.21;40.24;76.19;;
72160;Laerm;60045;51.792;10.938;2023-08-08T08:54:31;63.48;42.56;78.08;;
72160;Laerm;60045;51.792;10.938;2023-08-08T08:56:56;58.27;43.19;72.78;;
72160;Laerm;60045;51.792;10.938;2023-08-08T08:59:22;62.40;43.40;76.53;;
72160;Laerm;60045;51.792;10.938;2023-08-08T09:01:49;65.25;42.57;76.62;;
72160;Laerm;60045;51.792;10.938;2023-08-08T09:04:15;61.47;41.96;71.85;;
72160;Laerm;60045;51.792;10.938;2023-08-08T09:06:43;65.63;43.95;81.25;;
72160;Laerm;60045;51.792;10.938;2023-08-08T09:09:11;59.81;39.85;71.45;;
72160;Laerm;60045;51.792;10.938;2023-08-08T09:11:38;61.30;37.90;71.01;;
72160;Laerm;60045;51.792;10.938;2023-08-08T09:14:14;64.15;42.23;75.78;;
72160;Laerm;60045;51.792;10.938;2023-08-08T09:16:42;64.11;44.53;76.91;;
72160;Laerm;60045;51.792;10.938;2023-08-08T09:19:08;60.53;42.48;72.81;;
72160;Laerm;60045;51.792;10.938;2023-08-08T09:21:34;64.26;41.16;77.21;;
72160;Laerm;60045;51.792;10.938;2023-08-08T09:23:59;59.12;38.69;73.76;;
72160;Laerm;60045;51.792;10.938;2023-08-08T09:26:25;59.64;39.55;70.76;;
72160;Laerm;60045;51.792;10.938;2023-08-08T09:28:51;64.00;40.66;80.00;;
72160;Laerm;60045;51.792;10.938;2023-08-08T09:31:16;63.74;39.59;77.72;;
72160;Laerm;60045;51.792;10.938;2023-08-08T09:33:42;61.07;37.96;71.44;;
72160;Laerm;60045;51.792;10.938;2023-08-08T09:36:13;60.49;41.18;71.85;;
72160;Laerm;60045;51.792;10.938;2023-08-08T09:38:39;64.48;43.00;80.18;;
72160;Laerm;60045;51.792;10.938;2023-08-08T09:41:05;61.30;43.43;74.91;;
72160;Laerm;60045;51.792;10.938;2023-08-08T09:43:31;58.85;43.40;69.90;;
72160;Laerm;60045;51.792;10.938;2023-08-08T09:45:57;63.94;43.66;77.97;;
72160;Laerm;60045;51.792;10.938;2023-08-08T09:48:29;58.11;43.10;70.91;;
72160;Laerm;60045;51.792;10.938;2023-08-08T09:50:55;65.85;42.79;82.93;;
72160;Laerm;60045;51.792;10.938;2023-08-08T09:53:22;56.94;42.74;71.49;;
72160;Laerm;60045;51.792;10.938;2023-08-08T09:55:48;66.21;40.71;79.01;;
72160;Laerm;60045;51.792;10.938;2023-08-08T09:58:14;62.76;45.91;75.82;;
72160;Laerm;60045;51.792;10.938;2023-08-08T10:00:40;63.13;41.67;77.25;;
72160;Laerm;60045;51.792;10.938;2023-08-08T10:03:06;62.75;38.17;75.26;;
72160;Laerm;60045;51.792;10.938;2023-08-08T10:05:32;57.84;39.39;71.66;;
72160;Laerm;60045;51.792;10.938;2023-08-08T10:07:57;61.19;39.11;71.28;;
72160;Laerm;60045;51.792;10.938;2023-08-08T10:10:23;61.93;39.08;76.19;;
72160;Laerm;60045;51.792;10.938;2023-08-08T10:12:49;63.38;37.21;78.04;;
72160;Laerm;60045;51.792;10.938;2023-08-08T10:15:15;60.66;38.76;71.20;;
72160;Laerm;60045;51.792;10.938;2023-08-08T10:17:41;61.84;41.76;72.94;;
72160;Laerm;60045;51.792;10.938;2023-08-08T10:20:08;64.63;42.01;85.17;;
72160;Laerm;60045;51.792;10.938;2023-08-08T10:22:41;63.51;44.30;77.65;;
72160;Laerm;60045;51.792;10.938;2023-08-08T10:25:08;61.64;43.89;73.27;;
72160;Laerm;60045;51.792;10.938;2023-08-08T10:27:34;61.93;43.27;74.42;;
72160;Laerm;60045;51.792;10.938;2023-08-08T10:30:01;60.98;39.31;73.12;;
72160;Laerm;60045;51.792;10.938;2023-08-08T10:32:27;64.23;39.58;78.10;;
72160;Laerm;60045;51.792;10.938;2023-08-08T10:34:54;56.86;40.57;68.41;;
72160;Laerm;60045;51.792;10.938;2023-08-08T10:37:20;62.02;39.02;72.59;;
72160;Laerm;60045;51.792;10.938;2023-08-08T10:39:51;58.30;38.32;70.75;;
72160;Laerm;60045;51.792;10.938;2023-08-08T10:42:18;62.52;37.42;76.74;;
72160;Laerm;60045;51.792;10.938;2023-08-08T10:44:50;58.41;37.76;69.88;;
72160;Laerm;60045;51.792;10.938;2023-08-08T10:47:20;64.62;38.86;77.44;;
72160;Laerm;60045;51.792;10.938;2023-08-08T10:49:55;59.86;40.65;71.50;;
72160;Laerm;60045;51.792;10.938;2023-08-08T10:52:21;58.68;39.56;74.05;;
72160;Laerm;60045;51.792;10.938;2023-08-08T10:54:53;61.23;41.27;72.96;;
72160;Laerm;60045;51.792;10.938;2023-08-08T10:57:19;64.19;39.51;80.45;;
72160;Laerm;60045;51.792;10.938;2023-08-08T10:59:45;58.09;39.82;70.99;;
72160;Laerm;60045;51.792;10.938;2023-08-08T11:02:11;61.34;40.22;74.02;;
72160;Laerm;60045;51.792;10.938;2023-08-08T11:04:38;62.62;37.89;73.21;;
72160;Laerm;60045;51.792;10.938;2023-08-08T11:07:04;60.63;38.79;72.33;;
72160;Laerm;60045;51.792;10.938;2023-08-08T11:09:30;60.27;42.02;70.81;;
72160;Laerm;60045;51.792;10.938;2023-08-08T11:11:56;52.89;40.40;66.24;;
72160;Laerm;60045;51.792;10.938;2023-08-08T11:14:22;64.11;46.61;75.60;;
72160;Laerm;60045;51.792;10.938;2023-08-08T11:16:49;59.90;43.33;72.34;;
72160;Laerm;60045;51.792;10.938;2023-08-08T11:19:15;62.80;44.19;80.29;;
72160;Laerm;60045;51.792;10.938;2023-08-08T11:21:44;61.24;43.90;81.06;;
72160;Laerm;60045;51.792;10.938;2023-08-08T11:24:10;56.76;40.38;70.23;;
72160;Laerm;60045;51.792;10.938;2023-08-08T11:26:37;61.35;41.09;73.55;;
72160;Laerm;60045;51.792;10.938;2023-08-08T11:29:04;56.92;38.81;72.55;;
72160;Laerm;60045;51.792;10.938;2023-08-08T11:31:31;63.24;39.38;75.14;;
72160;Laerm;60045;51.792;10.938;2023-08-08T11:33:58;61.74;40.29;72.20;;
72160;Laerm;60045;51.792;10.938;2023-08-08T11:36:24;60.46;43.12;73.26;;
72160;Laerm;60045;51.792;10.938;2023-08-08T11:38:51;58.64;39.76;73.72;;
72160;Laerm;60045;51.792;10.938;2023-08-08T11:41:19;61.28;44.55;72.30;;
72160;Laerm;60045;51.792;10.938;2023-08-08T11:43:46;59.00;43.19;72.44;;
72160;Laerm;60045;51.792;10.938;2023-08-08T11:46:13;61.88;40.44;70.91;;
72160;Laerm;60045;51.792;10.938;2023-08-08T11:48:39;64.45;43.50;76.48;;
72160;Laerm;60045;51.792;10.938;2023-08-08T11:51:05;59.89;44.29;71.09;;
72160;Laerm;60045;51.792;10.938;2023-08-08T11:53:31;60.91;43.86;76.54;;
72160;Laerm;60045;51.792;10.938;2023-08-08T11:55:57;57.54;40.73;73.57;;
72160;Laerm;60045;51.792;10.938;2023-08-08T11:58:26;66.52;41.21;79.72;;
72160;Laerm;60045;51.792;10.938;2023-08-08T12:00:52;65.77;41.02;80.30;;
72160;Laerm;60045;51.792;10.938;2023-08-08T12:03:19;61.98;37.12;75.32;;
72160;Laerm;60045;51.792;10.938;2023-08-08T12:05:47;60.30;35.76;72.74;;
72160;Laerm;60045;51.792;10.938;2023-08-08T12:08:12;68.84;38.47;85.00;;
72160;Laerm;60045;51.792;10.938;2023-08-08T12:10:39;54.29;36.62;68.79;;
72160;Laerm;60045;51.792;10.938;2023-08-08T12:13:05;64.84;41.26;79.31;;
72160;Laerm;60045;51.792;10.938;2023-08-08T12:15:35;62.02;36.43;75.43;;
72160;Laerm;60045;51.792;10.938;2023-08-08T12:18:01;63.20;40.78;73.60;;
72160;Laerm;60045;51.792;10.938;2023-08-08T12:20:27;62.23;38.76;77.81;;
72160;Laerm;60045;51.792;10.938;2023-08-08T12:22:54;66.76;41.08;81.07;;
72160;Laerm;60045;51.792;10.938;2023-08-08T12:25:20;62.99;39.62;73.21;;
72160;Laerm;60045;51.792;10.938;2023-08-08T12:27:46;59.38;39.55;72.90;;
72160;Laerm;60045;51.792;10.938;2023-08-08T12:30:11;61.42;38.30;74.55;;
72160;Laerm;60045;51.792;10.938;2023-08-08T12:32:37;63.38;38.75;76.78;;
72160;Laerm;60045;51.792;10.938;2023-08-08T12:35:03;60.32;37.39;71.88;;
72160;Laerm;60045;51.792;10.938;2023-08-08T12:37:29;62.44;38.78;73.58;;
72160;Laerm;60045;51.792;10.938;2023-08-08T12:39:55;61.23;40.38;72.57;;
72160;Laerm;60045;51.792;10.938;2023-08-08T12:42:21;61.01;37.75;72.46;;
72160;Laerm;60045;51.792;10.938;2023-08-08T12:44:47;66.38;42.20;80.30;;
72160;Laerm;60045;51.792;10.938;2023-08-08T12:47:16;58.73;43.00;73.25;;
72160;Laerm;60045;51.792;10.938;2023-08-08T12:49:41;66.57;43.22;79.69;;
72160;Laerm;60045;51.792;10.938;2023-08-08T12:52:07;64.82;41.33;75.50;;
72160;Laerm;60045;51.792;10.938;2023-08-08T12:54:33;58.95;38.53;70.06;;
72160;Laerm;60045;51.792;10.938;2023-08-08T12:57:01;62.42;39.73;71.70;;
72160;Laerm;60045;51.792;10.938;2023-08-08T12:59:26;60.68;44.40;72.16;;
72160;Laerm;60045;51.792;10.938;2023-08-08T13:01:52;64.52;41.43;79.59;;
72160;Laerm;60045;51.792;10.938;2023-08-08T13:04:18;66.61;39.90;81.53;;
72160;Laerm;60045;51.792;10.938;2023-08-08T13:06:44;66.06;44.44;77.69;;
72160;Laerm;60045;51.792;10.938;2023-08-08T13:09:10;65.12;43.29;78.00;;
72160;Laerm;60045;51.792;10.938;2023-08-08T13:11:36;60.88;37.27;72.85;;
72160;Laerm;60045;51.792;10.938;2023-08-08T13:14:01;62.19;37.30;73.76;;
72160;Laerm;60045;51.792;10.938;2023-08-08T13:16:27;60.18;38.43;72.76;;
72160;Laerm;60045;51.792;10.938;2023-08-08T13:18:53;63.27;41.13;73.32;;
72160;Laerm;60045;51.792;10.938;2023-08-08T13:21:18;63.30;42.23;72.44;;
72160;Laerm;60045;51.792;10.938;2023-08-08T13:23:44;65.80;41.69;81.22;;
72160;Laerm;60045;51.792;10.938;2023-08-08T13:26:11;62.28;41.08;75.33;;